createdAt,value
2022-12-01T00:02:42.845Z,102891.72
2022-12-01T00:05:44.296Z,102891.72
2022-12-01T00:08:47.654Z,102889.16
2022-12-01T00:11:48.985Z,102891.59
2022-12-01T00:14:50.378Z,102895.03
2022-12-01T00:17:51.729Z,102897.63
2022-12-01T00:20:53.082Z,102889.09
2022-12-01T00:23:57.294Z,102892.53
2022-12-01T00:26:58.643Z,102895.03
2022-12-01T00:29:59.990Z,102891.63
2022-12-01T00:33:01.326Z,102895.84
2022-12-01T00:36:03.856Z,102883.03
2022-12-01T00:39:05.216Z,102891.50
2022-12-01T00:42:11.744Z,102890.69
2022-12-01T00:45:14.682Z,102883.88
2022-12-01T00:48:16.123Z,102891.59
2022-12-01T00:51:17.466Z,102892.44
2022-12-01T00:54:18.871Z,102892.38
2022-12-01T00:57:20.227Z,102900.03
2022-12-01T01:00:23.534Z,102903.47
2022-12-01T01:03:25.678Z,102898.38
2022-12-01T01:06:27.056Z,102900.94
2022-12-01T01:09:28.488Z,102908.63
2022-12-01T01:12:29.964Z,102902.66
2022-12-01T01:15:31.845Z,102908.69
2022-12-01T01:18:33.822Z,102911.25
2022-12-01T01:21:35.372Z,102914.63
2022-12-01T01:24:36.931Z,102903.53
2022-12-01T01:27:38.280Z,102907.78
2022-12-01T01:30:40.361Z,102905.22
2022-12-01T01:33:42.026Z,102912.06
2022-12-01T01:36:43.398Z,102917.16
2022-12-01T01:39:44.804Z,102912.00
2022-12-01T01:42:46.141Z,102915.44
2022-12-01T01:45:47.497Z,102921.38
2022-12-01T01:49:11.238Z,102923.97
2022-12-01T01:52:13.341Z,102929.94
2022-12-01T01:55:15.453Z,102923.13
2022-12-01T01:58:16.986Z,102923.94
2022-12-01T02:01:18.424Z,102928.25
2022-12-01T02:04:20.425Z,102928.25
2022-12-01T02:07:21.866Z,102921.41
2022-12-01T02:11:10.639Z,102923.91
2022-12-01T02:14:38.994Z,102929.84
2022-12-01T02:18:02.144Z,102935.81
2022-12-01T02:21:41.034Z,102928.94
2022-12-01T02:25:27.127Z,102919.56
2022-12-01T02:28:53.956Z,102925.53
2022-12-01T02:31:59.078Z,102928.94
2022-12-01T02:35:39.059Z,102922.09
2022-12-01T02:38:51.792Z,102923.84
2022-12-01T02:42:07.150Z,102922.16
2022-12-01T02:45:14.943Z,102917.91
2022-12-01T02:48:25.647Z,102923.00
2022-12-01T02:51:30.406Z,102923.84
2022-12-01T02:54:33.431Z,102922.13
2022-12-01T02:57:34.787Z,102916.13
2022-12-01T03:00:36.620Z,102917.00
2022-12-01T03:03:53.669Z,102914.50
2022-12-01T03:07:12.618Z,102917.91
2022-12-01T03:10:31.864Z,102917.91
2022-12-01T03:13:45.991Z,102913.63
2022-12-01T03:16:51.544Z,102913.63
2022-12-01T03:19:59.263Z,102912.78
2022-12-01T03:23:08.740Z,102907.66
2022-12-01T03:26:17.073Z,102912.75
2022-12-01T03:29:26.496Z,102905.94
2022-12-01T03:32:41.060Z,102914.44
2022-12-01T03:35:53.906Z,102912.69
2022-12-01T03:39:01.037Z,102912.75
2022-12-01T03:42:10.421Z,102912.75
2022-12-01T03:45:18.210Z,102911.84
2022-12-01T03:48:19.682Z,102913.56
2022-12-01T03:51:56.255Z,102915.25
2022-12-01T03:55:00.610Z,102919.53
2022-12-01T03:58:07.973Z,102922.09
2022-12-01T04:01:09.660Z,102915.25
2022-12-01T04:04:13.812Z,102914.41
2022-12-01T04:07:15.214Z,102914.41
2022-12-01T04:10:16.654Z,102910.13
2022-12-01T04:13:18.131Z,102917.78
2022-12-01T04:16:19.490Z,102919.50
2022-12-01T04:19:20.927Z,102911.84
2022-12-01T04:22:23.435Z,102918.63
2022-12-01T04:25:24.823Z,102922.88
2022-12-01T04:28:26.643Z,102925.41
2022-12-01T04:31:28.598Z,102928.84
2022-12-01T04:34:29.984Z,102922.88
2022-12-01T04:37:31.324Z,102934.75
2022-12-01T04:40:32.797Z,102932.19
2022-12-01T04:43:34.172Z,102932.16
2022-12-01T04:46:35.606Z,102933.00
2022-12-01T04:49:37.101Z,102934.72
2022-12-01T04:52:38.476Z,102928.78
2022-12-01T04:55:39.937Z,102933.03
2022-12-01T04:58:41.353Z,102933.03
2022-12-01T05:01:42.912Z,102933.91
2022-12-01T05:04:44.457Z,102928.72
2022-12-01T05:07:45.894Z,102932.16
2022-12-01T05:10:47.294Z,102931.34
2022-12-01T05:13:49.212Z,102927.88
2022-12-01T05:16:50.872Z,102935.50
2022-12-01T05:19:52.266Z,102936.34
2022-12-01T05:23:05.213Z,102944.00
2022-12-01T05:26:09.227Z,102937.16
2022-12-01T05:29:11.666Z,102937.13
2022-12-01T05:32:13.059Z,102943.06
2022-12-01T05:35:14.633Z,102940.50
2022-12-01T05:38:16.448Z,102949.00
2022-12-01T05:41:17.830Z,102945.59
2022-12-01T05:44:19.557Z,102952.38
2022-12-01T05:47:20.952Z,102951.50
2022-12-01T05:50:23.306Z,102957.47
2022-12-01T05:53:24.774Z,102956.59
2022-12-01T05:56:26.201Z,102959.16
2022-12-01T05:59:28.338Z,102954.84
2022-12-01T06:02:29.724Z,102959.13
2022-12-01T06:05:31.490Z,102961.63
2022-12-01T06:08:32.914Z,102966.84
2022-12-01T06:11:34.265Z,102959.16
2022-12-01T06:14:35.616Z,102960.84
2022-12-01T06:17:40.182Z,102971.03
2022-12-01T06:20:41.997Z,102969.25
2022-12-01T06:23:43.323Z,102971.84
2022-12-01T06:26:44.688Z,102976.94
2022-12-01T06:29:46.020Z,102976.06
2022-12-01T06:32:47.370Z,102973.53
2022-12-01T06:35:48.725Z,102977.81
2022-12-01T06:38:50.081Z,102981.19
2022-12-01T06:41:51.417Z,102988.84
2022-12-01T06:44:52.758Z,102992.19
2022-12-01T06:47:55.302Z,102987.97
2022-12-01T06:51:00.597Z,102993.94
2022-12-01T06:54:05.493Z,102987.97
2022-12-01T06:57:07.182Z,102994.78
2022-12-01T07:00:09.477Z,102998.22
2022-12-01T07:03:10.978Z,103000.72
2022-12-01T07:06:12.331Z,103000.81
2022-12-01T07:09:13.691Z,103001.59
2022-12-01T07:12:15.021Z,103010.97
2022-12-01T07:15:16.521Z,103009.28
2022-12-01T07:18:18.346Z,103008.38
2022-12-01T07:21:19.775Z,103014.38
2022-12-01T07:24:21.130Z,103010.97
2022-12-01T07:27:22.538Z,103005.91
2022-12-01T07:30:28.253Z,103007.59
2022-12-01T07:33:30.738Z,103005.91
2022-12-01T07:36:32.205Z,103017.00
2022-12-01T07:39:33.561Z,103019.53
2022-12-01T07:42:34.887Z,103017.00
2022-12-01T07:45:36.423Z,103016.16
2022-12-01T07:48:38.961Z,103019.53
2022-12-01T07:51:40.356Z,103024.66
2022-12-01T07:54:41.698Z,103030.59
2022-12-01T07:57:43.038Z,103022.94
2022-12-01T08:00:44.429Z,103033.16
2022-12-01T08:03:48.242Z,103031.50
2022-12-01T08:06:49.592Z,103036.63
2022-12-01T08:09:51.264Z,103031.53
2022-12-01T08:12:52.917Z,103037.44
2022-12-01T08:15:54.434Z,103043.44
2022-12-01T08:18:55.864Z,103035.78
2022-12-01T08:21:57.360Z,103042.53
2022-12-01T08:24:58.800Z,103042.53
2022-12-01T08:28:00.765Z,103035.69
2022-12-01T08:31:14.458Z,103033.13
2022-12-01T08:34:15.872Z,103032.31
2022-12-01T08:37:17.244Z,103032.31
2022-12-01T08:40:18.684Z,103039.13
2022-12-01T08:43:49.477Z,103040.00
2022-12-01T08:46:41.386Z,103045.09
2022-12-01T08:49:42.762Z,103036.59
2022-12-01T08:52:44.081Z,103045.16
2022-12-01T08:55:45.410Z,103047.78
2022-12-01T08:58:46.802Z,103047.78
2022-12-01T09:01:48.242Z,103046.91
2022-12-01T09:04:50.259Z,103047.78
2022-12-01T09:07:51.686Z,103058.88
2022-12-01T09:10:53.455Z,103055.50
2022-12-01T09:13:54.943Z,103061.50
2022-12-01T09:16:56.287Z,103048.66
2022-12-01T09:19:57.604Z,103052.09
2022-12-01T09:22:58.924Z,103059.63
2022-12-01T09:26:00.367Z,103052.78
2022-12-01T09:29:05.940Z,103062.19
2022-12-01T09:32:07.267Z,103064.72
2022-12-01T09:35:08.636Z,103055.34
2022-12-01T09:38:09.989Z,103056.25
2022-12-01T09:41:18.855Z,103057.13
2022-12-01T09:44:56.944Z,103061.38
2022-12-01T09:48:02.601Z,103058.06
2022-12-01T09:51:04.017Z,103057.34
2022-12-01T09:54:10.587Z,103056.59
2022-12-01T09:57:28.364Z,103055.84
2022-12-01T10:00:34.023Z,103053.59
2022-12-01T10:03:43.548Z,103049.34
2022-12-01T10:07:03.307Z,103033.19
2022-12-01T10:10:14.477Z,103038.47
2022-12-01T10:13:20.187Z,103039.41
2022-12-01T10:16:32.572Z,103033.56
2022-12-01T10:19:42.570Z,103031.97
2022-12-01T10:22:58.922Z,103024.31
2022-12-01T10:26:07.970Z,103028.53
2022-12-01T10:29:16.502Z,103031.03
2022-12-01T10:32:30.298Z,103025.81
2022-12-01T10:35:33.134Z,103027.53
2022-12-01T10:38:37.303Z,103031.81
2022-12-01T10:41:39.788Z,103027.50
2022-12-01T10:44:42.050Z,103017.06
2022-12-01T10:48:09.519Z,103013.44
2022-12-01T10:51:17.302Z,103002.31
2022-12-01T10:54:20.102Z,103006.56
2022-12-01T10:57:21.557Z,103006.66
2022-12-01T11:00:57.952Z,103008.41
2022-12-01T11:03:52.022Z,103010.19
2022-12-01T11:06:53.568Z,103006.72
2022-12-01T11:10:04.321Z,103005.91
2022-12-01T11:13:14.928Z,103013.56
2022-12-01T11:16:34.131Z,103007.56
2022-12-01T11:19:35.562Z,103004.94
2022-12-01T11:22:38.201Z,103006.69
2022-12-01T11:25:39.572Z,103009.97
2022-12-01T11:29:02.992Z,103010.69
2022-12-01T11:32:32.989Z,103014.09
2022-12-01T11:35:37.869Z,103015.00
2022-12-01T11:38:39.270Z,103011.53
2022-12-01T11:41:40.735Z,103019.22
2022-12-01T11:44:55.367Z,103022.59
2022-12-01T11:48:12.026Z,103010.47
2022-12-01T11:51:19.344Z,103017.19
2022-12-01T11:54:26.161Z,103018.09
2022-12-01T11:57:34.816Z,103006.16
2022-12-01T12:00:57.387Z,103002.75
2022-12-01T12:04:12.320Z,103002.78
2022-12-01T12:07:42.821Z,103005.97
2022-12-01T12:10:59.496Z,103003.28
2022-12-01T12:14:10.115Z,103003.38
2022-12-01T12:17:24.462Z,102993.25
2022-12-01T12:20:47.158Z,102990.72
2022-12-01T12:24:09.183Z,102991.50
2022-12-01T12:27:15.668Z,102993.22
2022-12-01T12:30:21.645Z,102983.00
2022-12-01T12:34:07.576Z,102995.59
2022-12-01T12:37:26.229Z,102986.91
2022-12-01T12:40:54.689Z,102989.41
2022-12-01T12:43:58.916Z,102986.84
2022-12-01T12:47:26.733Z,102992.69
2022-12-01T12:50:49.628Z,102987.56
2022-12-01T12:54:07.819Z,102976.38
2022-12-01T12:57:35.544Z,102991.69
2022-12-01T13:00:42.376Z,102988.22
2022-12-01T13:03:55.588Z,102986.44
2022-12-01T13:07:05.213Z,102984.81
2022-12-01T13:10:20.240Z,102986.56
2022-12-01T13:13:30.781Z,102994.22
2022-12-01T13:16:37.792Z,102990.00
2022-12-01T13:19:41.153Z,102986.63
2022-12-01T13:22:42.817Z,102990.69
2022-12-01T13:25:49.084Z,102998.47
2022-12-01T13:28:56.039Z,102995.91
2022-12-01T13:31:57.406Z,102995.16
2022-12-01T13:35:00.310Z,103002.91
2022-12-01T13:38:33.150Z,103007.09
2022-12-01T13:41:38.385Z,103007.09
2022-12-01T13:44:45.864Z,103001.94
2022-12-01T13:47:47.196Z,103007.09
2022-12-01T13:50:59.027Z,103003.75
2022-12-01T13:54:28.051Z,103009.56
2022-12-01T13:57:34.532Z,103004.47
2022-12-01T14:00:36.074Z,102997.66
2022-12-01T14:03:39.631Z,103000.19
2022-12-01T14:06:44.126Z,103000.28
2022-12-01T14:09:45.899Z,102995.97
2022-12-01T14:12:49.049Z,102997.66
2022-12-01T14:15:55.731Z,102989.28
2022-12-01T14:18:58.972Z,102990.13
2022-12-01T14:22:02.080Z,102983.22
2022-12-01T14:25:28.765Z,102981.50
2022-12-01T14:29:00.082Z,102977.06
2022-12-01T14:32:01.360Z,102980.41
2022-12-01T14:35:05.085Z,102973.59
2022-12-01T14:38:09.912Z,102984.44
2022-12-01T14:41:22.791Z,102980.25
2022-12-01T14:44:33.104Z,102982.84
2022-12-01T14:47:52.436Z,102981.16
2022-12-01T14:51:09.506Z,102989.75
2022-12-01T14:54:18.270Z,102984.34
2022-12-01T14:57:24.509Z,102991.91
2022-12-01T15:00:26.429Z,102989.38
2022-12-01T15:03:34.042Z,102990.25
2022-12-01T15:06:37.289Z,102986.66
2022-12-01T15:09:58.699Z,102990.00
2022-12-01T15:13:14.399Z,102984.09
2022-12-01T15:16:18.980Z,102992.72
2022-12-01T15:19:37.623Z,102988.53
2022-12-01T15:22:41.085Z,102982.53
2022-12-01T15:25:45.482Z,102994.38
2022-12-01T15:28:46.926Z,102984.84
2022-12-01T15:31:51.771Z,102990.69
2022-12-01T15:34:55.288Z,102984.66
2022-12-01T15:37:56.952Z,102986.94
2022-12-01T15:41:28.416Z,102994.72
2022-12-01T15:44:41.505Z,102998.25
2022-12-01T15:47:42.786Z,103001.53
2022-12-01T15:50:58.598Z,102996.38
2022-12-01T15:54:01.358Z,103002.47
2022-12-01T15:57:02.993Z,102997.31
2022-12-01T16:00:04.939Z,103001.59
2022-12-01T16:03:14.517Z,103004.25
2022-12-01T16:06:16.272Z,103004.22
2022-12-01T16:09:20.652Z,103000.69
2022-12-01T16:12:24.564Z,103010.13
2022-12-01T16:15:25.969Z,103016.16
2022-12-01T16:18:34.216Z,103007.53
2022-12-01T16:21:43.069Z,102998.94
2022-12-01T16:24:50.835Z,103003.28
2022-12-01T16:27:56.991Z,103011.91
2022-12-01T16:30:58.676Z,103006.78
2022-12-01T16:34:13.998Z,102999.84
2022-12-01T16:37:24.057Z,103013.19
2022-12-01T16:40:25.702Z,103006.59
2022-12-01T16:43:28.548Z,103010.91
2022-12-01T16:46:29.997Z,103009.16
2022-12-01T16:49:31.375Z,103009.22
2022-12-01T16:52:48.267Z,103013.38
2022-12-01T16:55:53.749Z,103008.31
2022-12-01T16:58:55.161Z,103003.19
2022-12-01T17:01:56.609Z,103006.59
2022-12-01T17:04:57.970Z,103012.63
2022-12-01T17:07:59.941Z,103012.59
2022-12-01T17:11:05.099Z,103021.19
2022-12-01T17:14:06.516Z,103016.03
2022-12-01T17:17:07.854Z,103016.03
2022-12-01T17:20:10.548Z,103014.38
2022-12-01T17:23:11.934Z,103016.13
2022-12-01T17:26:16.253Z,103013.56
2022-12-01T17:29:17.600Z,103016.16
2022-12-01T17:32:18.976Z,103013.56
2022-12-01T17:35:20.294Z,103023.78
2022-12-01T17:38:21.632Z,103022.09
2022-12-01T17:41:23.006Z,103021.22
2022-12-01T17:44:24.335Z,103023.00
2022-12-01T17:47:26.284Z,103022.91
2022-12-01T17:50:27.608Z,103021.22
2022-12-01T17:53:28.945Z,103019.44
2022-12-01T17:56:30.824Z,103026.25
2022-12-01T17:59:32.156Z,103021.09
2022-12-01T18:02:34.017Z,103017.72
2022-12-01T18:05:35.419Z,103028.72
2022-12-01T18:08:36.862Z,103026.19
2022-12-01T18:11:38.238Z,103022.84
2022-12-01T18:14:39.574Z,103026.16
2022-12-01T18:17:40.884Z,103025.31
2022-12-01T18:20:43.533Z,103032.09
2022-12-01T18:23:56.661Z,103032.06
2022-12-01T18:26:58.030Z,103025.22
2022-12-01T18:29:59.350Z,103029.47
2022-12-01T18:33:01.244Z,103031.22
2022-12-01T18:36:03.574Z,103037.13
2022-12-01T18:39:06.542Z,103032.94
2022-12-01T18:42:07.886Z,103036.25
2022-12-01T18:45:09.620Z,103040.47
2022-12-01T18:48:10.963Z,103041.25
2022-12-01T18:51:12.874Z,103038.72
2022-12-01T18:54:15.746Z,103040.41
2022-12-01T18:57:17.084Z,103041.09
2022-12-01T19:00:18.791Z,103036.00
2022-12-01T19:03:20.417Z,103032.72
2022-12-01T19:06:22.385Z,103043.75
2022-12-01T19:09:23.925Z,103045.50
2022-12-01T19:12:25.349Z,103048.03
2022-12-01T19:15:26.732Z,103036.09
2022-12-01T19:18:28.065Z,103038.63
2022-12-01T19:21:29.421Z,103037.88
2022-12-01T19:24:30.745Z,103032.69
2022-12-01T19:27:32.154Z,103034.34
2022-12-01T19:30:34.715Z,103037.81
2022-12-01T19:33:36.106Z,103031.06
2022-12-01T19:36:37.450Z,103031.94
2022-12-01T19:39:38.842Z,103030.25
2022-12-01T19:42:41.111Z,103027.72
2022-12-01T19:45:42.543Z,103028.53
2022-12-01T19:48:44.454Z,103023.44
2022-12-01T19:51:45.807Z,103027.66
2022-12-01T19:54:47.149Z,103026.81
2022-12-01T19:57:51.632Z,103022.56
2022-12-01T20:00:52.995Z,103019.94
2022-12-01T20:03:54.855Z,103024.19
2022-12-01T20:06:56.249Z,103018.25
2022-12-01T20:09:57.604Z,103019.94
2022-12-01T20:12:58.980Z,103016.47
2022-12-01T20:16:05.768Z,103009.69
2022-12-01T20:19:07.593Z,103011.38
2022-12-01T20:22:08.971Z,103019.94
2022-12-01T20:25:10.445Z,103021.72
2022-12-01T20:28:11.793Z,103019.22
2022-12-01T20:31:20.633Z,103022.59
2022-12-01T20:34:25.457Z,103010.69
2022-12-01T20:37:26.847Z,103017.44
2022-12-01T20:40:28.234Z,103010.56
2022-12-01T20:43:30.205Z,103015.69
2022-12-01T20:46:31.722Z,103012.31
2022-12-01T20:49:33.186Z,103013.19
2022-12-01T20:52:34.742Z,103015.69
2022-12-01T20:55:36.726Z,103015.69
2022-12-01T20:58:39.259Z,103007.91
2022-12-01T21:01:40.633Z,103013.88
2022-12-01T21:04:42.147Z,103009.56
2022-12-01T21:07:43.618Z,103007.75
2022-12-01T21:10:45.841Z,103011.25
2022-12-01T21:13:47.176Z,103013.00
2022-12-01T21:16:48.707Z,103012.22
2022-12-01T21:19:55.904Z,103010.44
2022-12-01T21:23:08.587Z,103013.78
2022-12-01T21:26:14.120Z,103012.00
2022-12-01T21:29:17.672Z,103010.97
2022-12-01T21:32:31.125Z,103012.81
2022-12-01T21:35:32.473Z,103012.94
2022-12-01T21:38:33.796Z,103004.28
2022-12-01T21:41:35.159Z,102998.44
2022-12-01T21:44:37.192Z,103003.53
2022-12-01T21:47:38.590Z,103005.25
2022-12-01T21:50:39.946Z,102999.16
2022-12-01T21:53:41.428Z,103001.78
2022-12-01T21:56:42.790Z,102996.78
2022-12-01T21:59:44.173Z,102994.13
